This is the latest recevied weather packets stored in our database for station/object KD9ZDW. If no packets are shown the sender has not sent any weather packets the latest 10 day(s).
| Time | Temp. | Humidity | Pressure | Rain* | Wind** | Luminosity | Snow |
|---|---|---|---|---|---|---|---|
| 1777489581 | 13.89° C | 82% | 1012.5 hPa | 0 mm | - | 210 W/m² | - |
| 1777489277 | 13.89° C | 82% | 1012.5 hPa | 0 mm | - | 262 W/m² | - |
| 1777488975 | 12.78° C | 87% | 1012.5 hPa | 0 mm | - | 295 W/m² | - |
| 1777488672 | 12.78° C | 89% | 1012.5 hPa | 0 mm | - | 267 W/m² | - |
| 1777488370 | 12.78° C | 89% | 1012.6 hPa | 0 mm | - | 215 W/m² | - |
| 1777488068 | 12.78° C | 89% | 1012.4 hPa | 0 mm | - | 166 W/m² | - |
| 1777487765 | 12.22° C | 89% | 1012.5 hPa | 0 mm | - | 128 W/m² | - |
| 1777487463 | 12.22° C | 89% | 1012.5 hPa | 0 mm | - | 82 W/m² | - |
| 1777487160 | 12.22° C | 88% | 1012.7 hPa | 1.78 mm | - | 97 W/m² | - |
| 1777486855 | 12.78° C | 86% | 1012.5 hPa | 1.78 mm | - | 70 W/m² | - |
| 1777486553 | 13.33° C | 82% | 1012.5 hPa | 0 mm | - | 44 W/m² | - |
| 1777486251 | 14.44° C | 75% | 1012.3 hPa | 0 mm | - | 24 W/m² | - |
| 1777485948 | 14.44° C | 75% | 1012.4 hPa | 0 mm | - | 47 W/m² | - |
| 1777485644 | 15° C | 72% | 1012.1 hPa | 0 mm | - | 81 W/m² | - |
| 1777485339 | 14.44° C | 72% | 1012.2 hPa | 0 mm | - | 200 W/m² | - |
| 1777485036 | 15° C | 71% | 1012.2 hPa | 0 mm | - | 178 W/m² | - |
| 1777484733 | 14.44° C | 73% | 1012.3 hPa | 0 mm | - | 108 W/m² | - |
| 1777484429 | 15° C | 72% | 1012.5 hPa | 0 mm | - | 84 W/m² | - |
| 1777484126 | 15° C | 71% | 1012.4 hPa | 0 mm | - | 98 W/m² | - |
| 1777483822 | 15° C | 71% | 1012.6 hPa | 0 mm | - | 134 W/m² | - |
| 1777483520 | 14.44° C | 72% | 1012.4 hPa | 0 mm | - | 164 W/m² | - |
| 1777483220 | 14.44° C | 71% | 1012.7 hPa | 0 mm | - | 183 W/m² | - |
| 1777482917 | 14.44° C | 70% | 1012.4 hPa | 0 mm | - | 153 W/m² | - |
| 1777482612 | 14.44° C | 71% | 1012.7 hPa | 0 mm | - | 159 W/m² | - |
| 1777482310 | 14.44° C | 71% | 1012.5 hPa | 0 mm | - | 133 W/m² | - |
* Rain latest hour (hover to see other rain measurements)
** Current wind speed in m/s (hover to see current wind gust speed)